sensor_id;sensor_type;location;lat;lon;timestamp;P1;durP1;ratioP1;P2;durP2;ratioP2
6019;SDS011;3038;51.122;6.840;2022-12-07T00:01:37;24.17;;;20.13;;
6019;SDS011;3038;51.122;6.840;2022-12-07T00:04:04;27.53;;;20.57;;
6019;SDS011;3038;51.122;6.840;2022-12-07T00:06:34;29.07;;;24.00;;
6019;SDS011;3038;51.122;6.840;2022-12-07T00:09:05;26.80;;;22.60;;
6019;SDS011;3038;51.122;6.840;2022-12-07T00:11:31;26.37;;;23.60;;
6019;SDS011;3038;51.122;6.840;2022-12-07T00:13:58;25.20;;;21.80;;
6019;SDS011;3038;51.122;6.840;2022-12-07T00:16:26;20.07;;;16.80;;
6019;SDS011;3038;51.122;6.840;2022-12-07T00:18:52;26.87;;;21.13;;
6019;SDS011;3038;51.122;6.840;2022-12-07T00:21:19;30.47;;;23.20;;
6019;SDS011;3038;51.122;6.840;2022-12-07T00:23:46;28.10;;;23.30;;
6019;SDS011;3038;51.122;6.840;2022-12-07T00:26:17;23.77;;;21.20;;
6019;SDS011;3038;51.122;6.840;2022-12-07T00:28:52;24.43;;;18.77;;
6019;SDS011;3038;51.122;6.840;2022-12-07T00:31:19;23.53;;;21.03;;
6019;SDS011;3038;51.122;6.840;2022-12-07T00:33:47;26.20;;;21.57;;
6019;SDS011;3038;51.122;6.840;2022-12-07T00:36:14;21.67;;;19.47;;
6019;SDS011;3038;51.122;6.840;2022-12-07T00:38:42;25.00;;;20.17;;
6019;SDS011;3038;51.122;6.840;2022-12-07T00:41:10;22.63;;;19.30;;
6019;SDS011;3038;51.122;6.840;2022-12-07T00:43:37;22.30;;;19.33;;
6019;SDS011;3038;51.122;6.840;2022-12-07T00:46:02;24.70;;;21.00;;
6019;SDS011;3038;51.122;6.840;2022-12-07T00:48:28;23.93;;;21.47;;
6019;SDS011;3038;51.122;6.840;2022-12-07T00:50:53;27.90;;;22.97;;
6019;SDS011;3038;51.122;6.840;2022-12-07T00:53:19;26.20;;;21.47;;
6019;SDS011;3038;51.122;6.840;2022-12-07T00:55:45;23.00;;;20.53;;
6019;SDS011;3038;51.122;6.840;2022-12-07T00:58:10;21.60;;;17.57;;
6019;SDS011;3038;51.122;6.840;2022-12-07T01:00:37;23.33;;;19.47;;
6019;SDS011;3038;51.122;6.840;2022-12-07T01:03:04;25.47;;;22.03;;
6019;SDS011;3038;51.122;6.840;2022-12-07T01:05:31;26.27;;;22.50;;
6019;SDS011;3038;51.122;6.840;2022-12-07T01:07:56;28.83;;;22.03;;
6019;SDS011;3038;51.122;6.840;2022-12-07T01:10:21;26.83;;;22.57;;
6019;SDS011;3038;51.122;6.840;2022-12-07T01:12:47;33.17;;;24.63;;
6019;SDS011;3038;51.122;6.840;2022-12-07T01:15:12;34.50;;;25.10;;
6019;SDS011;3038;51.122;6.840;2022-12-07T01:17:38;26.57;;;23.50;;
6019;SDS011;3038;51.122;6.840;2022-12-07T01:20:04;31.60;;;24.37;;
6019;SDS011;3038;51.122;6.840;2022-12-07T01:22:30;28.37;;;24.17;;
6019;SDS011;3038;51.122;6.840;2022-12-07T01:24:55;27.13;;;24.20;;
6019;SDS011;3038;51.122;6.840;2022-12-07T01:27:20;25.77;;;21.23;;
6019;SDS011;3038;51.122;6.840;2022-12-07T01:29:46;32.43;;;26.40;;
6019;SDS011;3038;51.122;6.840;2022-12-07T01:32:11;32.60;;;26.33;;
6019;SDS011;3038;51.122;6.840;2022-12-07T01:34:36;33.67;;;25.93;;
6019;SDS011;3038;51.122;6.840;2022-12-07T01:37:02;32.00;;;26.20;;
6019;SDS011;3038;51.122;6.840;2022-12-07T01:39:27;31.20;;;24.67;;
6019;SDS011;3038;51.122;6.840;2022-12-07T01:41:53;36.20;;;26.43;;
6019;SDS011;3038;51.122;6.840;2022-12-07T01:44:25;34.90;;;28.10;;
6019;SDS011;3038;51.122;6.840;2022-12-07T01:46:59;31.93;;;26.43;;
6019;SDS011;3038;51.122;6.840;2022-12-07T01:49:28;31.90;;;25.50;;
6019;SDS011;3038;51.122;6.840;2022-12-07T01:52:23;31.50;;;24.87;;
6019;SDS011;3038;51.122;6.840;2022-12-07T01:54:53;34.97;;;26.90;;
6019;SDS011;3038;51.122;6.840;2022-12-07T01:57:21;34.40;;;26.77;;
6019;SDS011;3038;51.122;6.840;2022-12-07T01:59:48;27.40;;;24.10;;
6019;SDS011;3038;51.122;6.840;2022-12-07T02:02:20;32.07;;;24.70;;
6019;SDS011;3038;51.122;6.840;2022-12-07T02:04:50;28.57;;;24.43;;
6019;SDS011;3038;51.122;6.840;2022-12-07T02:07:18;31.67;;;28.10;;
6019;SDS011;3038;51.122;6.840;2022-12-07T02:09:45;36.23;;;25.30;;
6019;SDS011;3038;51.122;6.840;2022-12-07T02:12:11;35.83;;;28.07;;
6019;SDS011;3038;51.122;6.840;2022-12-07T02:14:36;37.40;;;28.90;;
6019;SDS011;3038;51.122;6.840;2022-12-07T02:17:07;39.23;;;28.23;;
6019;SDS011;3038;51.122;6.840;2022-12-07T02:19:53;33.90;;;26.53;;
6019;SDS011;3038;51.122;6.840;2022-12-07T02:31:36;35.73;;;26.33;;
6019;SDS011;3038;51.122;6.840;2022-12-07T02:34:09;34.30;;;28.43;;
6019;SDS011;3038;51.122;6.840;2022-12-07T02:36:44;35.37;;;27.30;;
6019;SDS011;3038;51.122;6.840;2022-12-07T02:39:19;40.13;;;29.50;;
6019;SDS011;3038;51.122;6.840;2022-12-07T02:41:51;31.47;;;26.30;;
6019;SDS011;3038;51.122;6.840;2022-12-07T02:44:22;37.30;;;27.67;;
6019;SDS011;3038;51.122;6.840;2022-12-07T02:46:52;37.67;;;28.90;;
6019;SDS011;3038;51.122;6.840;2022-12-07T02:49:21;39.93;;;29.00;;
6019;SDS011;3038;51.122;6.840;2022-12-07T02:51:49;33.53;;;25.53;;
6019;SDS011;3038;51.122;6.840;2022-12-07T02:54:15;35.70;;;28.27;;
6019;SDS011;3038;51.122;6.840;2022-12-07T03:05:07;35.93;;;28.97;;
6019;SDS011;3038;51.122;6.840;2022-12-07T03:08:02;36.40;;;28.37;;
6019;SDS011;3038;51.122;6.840;2022-12-07T03:16:27;33.07;;;28.80;;
6019;SDS011;3038;51.122;6.840;2022-12-07T03:18:59;32.27;;;27.13;;
6019;SDS011;3038;51.122;6.840;2022-12-07T03:21:33;36.50;;;27.77;;
6019;SDS011;3038;51.122;6.840;2022-12-07T03:24:03;37.53;;;26.80;;
6019;SDS011;3038;51.122;6.840;2022-12-07T03:26:36;33.40;;;27.50;;
6019;SDS011;3038;51.122;6.840;2022-12-07T03:29:15;33.80;;;26.60;;
6019;SDS011;3038;51.122;6.840;2022-12-07T03:31:46;33.83;;;26.80;;
6019;SDS011;3038;51.122;6.840;2022-12-07T03:34:26;30.67;;;26.23;;
6019;SDS011;3038;51.122;6.840;2022-12-07T03:37:09;33.90;;;27.73;;
6019;SDS011;3038;51.122;6.840;2022-12-07T03:40:17;29.73;;;26.00;;
6019;SDS011;3038;51.122;6.840;2022-12-07T03:42:47;31.87;;;26.83;;
6019;SDS011;3038;51.122;6.840;2022-12-07T03:45:14;30.10;;;26.70;;
6019;SDS011;3038;51.122;6.840;2022-12-07T03:47:48;33.13;;;28.33;;
6019;SDS011;3038;51.122;6.840;2022-12-07T03:50:50;29.20;;;26.03;;
6019;SDS011;3038;51.122;6.840;2022-12-07T03:53:46;34.40;;;27.83;;
6019;SDS011;3038;51.122;6.840;2022-12-07T03:56:17;26.43;;;23.37;;
6019;SDS011;3038;51.122;6.840;2022-12-07T03:58:44;39.10;;;27.83;;
6019;SDS011;3038;51.122;6.840;2022-12-07T04:01:09;33.30;;;27.67;;
6019;SDS011;3038;51.122;6.840;2022-12-07T04:03:35;29.50;;;25.93;;
6019;SDS011;3038;51.122;6.840;2022-12-07T04:06:01;33.67;;;26.60;;
6019;SDS011;3038;51.122;6.840;2022-12-07T04:08:26;33.27;;;26.53;;
6019;SDS011;3038;51.122;6.840;2022-12-07T04:10:52;33.80;;;26.03;;
6019;SDS011;3038;51.122;6.840;2022-12-07T04:13:17;33.43;;;26.53;;
6019;SDS011;3038;51.122;6.840;2022-12-07T04:15:42;31.30;;;25.67;;
6019;SDS011;3038;51.122;6.840;2022-12-07T04:18:08;30.40;;;25.43;;
6019;SDS011;3038;51.122;6.840;2022-12-07T04:20:33;29.33;;;25.57;;
6019;SDS011;3038;51.122;6.840;2022-12-07T04:22:58;28.67;;;25.50;;
6019;SDS011;3038;51.122;6.840;2022-12-07T04:25:24;31.80;;;25.33;;
6019;SDS011;3038;51.122;6.840;2022-12-07T04:27:49;29.10;;;24.70;;
6019;SDS011;3038;51.122;6.840;2022-12-07T04:30:15;30.47;;;24.77;;
6019;SDS011;3038;51.122;6.840;2022-12-07T04:32:40;29.90;;;23.80;;
6019;SDS011;3038;51.122;6.840;2022-12-07T04:35:05;29.60;;;25.03;;
6019;SDS011;3038;51.122;6.840;2022-12-07T04:37:31;28.00;;;24.03;;
6019;SDS011;3038;51.122;6.840;2022-12-07T04:39:57;28.10;;;23.47;;
6019;SDS011;3038;51.122;6.840;2022-12-07T04:42:22;32.03;;;24.77;;
6019;SDS011;3038;51.122;6.840;2022-12-07T04:44:48;27.73;;;22.33;;
6019;SDS011;3038;51.122;6.840;2022-12-07T04:47:13;24.43;;;22.00;;
6019;SDS011;3038;51.122;6.840;2022-12-07T04:49:39;27.87;;;23.63;;
6019;SDS011;3038;51.122;6.840;2022-12-07T04:52:04;27.00;;;24.10;;
6019;SDS011;3038;51.122;6.840;2022-12-07T04:54:29;30.47;;;25.57;;
6019;SDS011;3038;51.122;6.840;2022-12-07T04:56:55;33.03;;;22.30;;
6019;SDS011;3038;51.122;6.840;2022-12-07T04:59:20;31.97;;;24.50;;
6019;SDS011;3038;51.122;6.840;2022-12-07T05:01:46;29.07;;;23.70;;
6019;SDS011;3038;51.122;6.840;2022-12-07T05:04:11;28.67;;;23.03;;
6019;SDS011;3038;51.122;6.840;2022-12-07T05:06:36;26.07;;;21.50;;
6019;SDS011;3038;51.122;6.840;2022-12-07T05:09:02;33.30;;;22.50;;
6019;SDS011;3038;51.122;6.840;2022-12-07T05:11:28;23.90;;;21.10;;
6019;SDS011;3038;51.122;6.840;2022-12-07T05:16:34;25.13;;;20.30;;
6019;SDS011;3038;51.122;6.840;2022-12-07T05:18:59;15.13;;;13.40;;
6019;SDS011;3038;51.122;6.840;2022-12-07T05:21:25;19.17;;;16.33;;
6019;SDS011;3038;51.122;6.840;2022-12-07T05:23:50;20.83;;;17.20;;
6019;SDS011;3038;51.122;6.840;2022-12-07T05:26:16;23.27;;;18.83;;
6019;SDS011;3038;51.122;6.840;2022-12-07T05:28:42;20.53;;;18.17;;
6019;SDS011;3038;51.122;6.840;2022-12-07T05:31:07;22.47;;;18.60;;
6019;SDS011;3038;51.122;6.840;2022-12-07T05:33:33;21.30;;;19.10;;
6019;SDS011;3038;51.122;6.840;2022-12-07T05:35:59;31.93;;;23.67;;
6019;SDS011;3038;51.122;6.840;2022-12-07T05:38:31;27.63;;;18.67;;
6019;SDS011;3038;51.122;6.840;2022-12-07T05:41:04;20.20;;;18.17;;
6019;SDS011;3038;51.122;6.840;2022-12-07T05:43:31;19.73;;;17.27;;
6019;SDS011;3038;51.122;6.840;2022-12-07T05:45:57;22.10;;;17.17;;
6019;SDS011;3038;51.122;6.840;2022-12-07T05:48:22;22.03;;;17.13;;
6019;SDS011;3038;51.122;6.840;2022-12-07T05:50:48;21.53;;;16.00;;
6019;SDS011;3038;51.122;6.840;2022-12-07T05:53:14;20.57;;;17.07;;
6019;SDS011;3038;51.122;6.840;2022-12-07T05:55:40;17.80;;;15.90;;
6019;SDS011;3038;51.122;6.840;2022-12-07T05:58:05;18.00;;;16.27;;
6019;SDS011;3038;51.122;6.840;2022-12-07T06:00:49;17.73;;;15.73;;
6019;SDS011;3038;51.122;6.840;2022-12-07T06:03:15;20.77;;;18.20;;
6019;SDS011;3038;51.122;6.840;2022-12-07T06:05:40;20.83;;;17.60;;
6019;SDS011;3038;51.122;6.840;2022-12-07T06:08:06;19.70;;;16.77;;
6019;SDS011;3038;51.122;6.840;2022-12-07T06:10:31;18.80;;;16.80;;
6019;SDS011;3038;51.122;6.840;2022-12-07T06:12:57;18.40;;;16.40;;
6019;SDS011;3038;51.122;6.840;2022-12-07T06:15:22;19.07;;;17.10;;
6019;SDS011;3038;51.122;6.840;2022-12-07T06:17:48;23.30;;;16.73;;
6019;SDS011;3038;51.122;6.840;2022-12-07T06:20:13;21.73;;;16.87;;
6019;SDS011;3038;51.122;6.840;2022-12-07T06:22:39;19.13;;;16.83;;
6019;SDS011;3038;51.122;6.840;2022-12-07T06:25:04;17.83;;;15.80;;
6019;SDS011;3038;51.122;6.840;2022-12-07T06:27:30;19.93;;;16.53;;
6019;SDS011;3038;51.122;6.840;2022-12-07T06:29:56;18.50;;;16.57;;
6019;SDS011;3038;51.122;6.840;2022-12-07T06:32:21;22.43;;;17.43;;
6019;SDS011;3038;51.122;6.840;2022-12-07T06:34:47;20.43;;;17.13;;
6019;SDS011;3038;51.122;6.840;2022-12-07T06:37:12;17.67;;;14.90;;
6019;SDS011;3038;51.122;6.840;2022-12-07T06:39:38;20.70;;;15.30;;
6019;SDS011;3038;51.122;6.840;2022-12-07T06:42:03;23.23;;;15.07;;
6019;SDS011;3038;51.122;6.840;2022-12-07T06:44:29;16.50;;;14.60;;
6019;SDS011;3038;51.122;6.840;2022-12-07T06:46:54;18.83;;;16.93;;
6019;SDS011;3038;51.122;6.840;2022-12-07T06:49:20;18.80;;;16.77;;
6019;SDS011;3038;51.122;6.840;2022-12-07T06:51:45;22.30;;;17.80;;
6019;SDS011;3038;51.122;6.840;2022-12-07T06:54:11;17.93;;;16.03;;
6019;SDS011;3038;51.122;6.840;2022-12-07T06:56:38;22.73;;;18.40;;
6019;SDS011;3038;51.122;6.840;2022-12-07T06:59:04;20.90;;;17.30;;
6019;SDS011;3038;51.122;6.840;2022-12-07T07:01:31;22.50;;;18.10;;
6019;SDS011;3038;51.122;6.840;2022-12-07T07:03:57;25.00;;;18.20;;
6019;SDS011;3038;51.122;6.840;2022-12-07T07:06:23;19.37;;;16.83;;
6019;SDS011;3038;51.122;6.840;2022-12-07T07:08:48;21.37;;;18.70;;
6019;SDS011;3038;51.122;6.840;2022-12-07T07:11:14;24.07;;;18.50;;
6019;SDS011;3038;51.122;6.840;2022-12-07T07:13:40;24.50;;;18.67;;
6019;SDS011;3038;51.122;6.840;2022-12-07T07:16:05;21.60;;;18.43;;
6019;SDS011;3038;51.122;6.840;2022-12-07T07:18:31;20.83;;;18.50;;
6019;SDS011;3038;51.122;6.840;2022-12-07T07:20:56;20.33;;;18.23;;
6019;SDS011;3038;51.122;6.840;2022-12-07T07:23:22;24.90;;;18.27;;
6019;SDS011;3038;51.122;6.840;2022-12-07T07:25:47;20.03;;;17.47;;
6019;SDS011;3038;51.122;6.840;2022-12-07T07:28:13;24.57;;;20.07;;
6019;SDS011;3038;51.122;6.840;2022-12-07T07:30:39;23.03;;;18.83;;
6019;SDS011;3038;51.122;6.840;2022-12-07T07:33:05;21.63;;;19.23;;
6019;SDS011;3038;51.122;6.840;2022-12-07T07:35:31;27.57;;;18.63;;
6019;SDS011;3038;51.122;6.840;2022-12-07T07:37:58;22.83;;;20.33;;
6019;SDS011;3038;51.122;6.840;2022-12-07T07:40:24;22.83;;;19.23;;
6019;SDS011;3038;51.122;6.840;2022-12-07T07:42:50;21.53;;;19.23;;
6019;SDS011;3038;51.122;6.840;2022-12-07T07:45:17;26.40;;;20.13;;
6019;SDS011;3038;51.122;6.840;2022-12-07T07:47:43;22.53;;;19.07;;
6019;SDS011;3038;51.122;6.840;2022-12-07T07:50:09;26.33;;;19.70;;
6019;SDS011;3038;51.122;6.840;2022-12-07T07:52:34;25.83;;;19.53;;
6019;SDS011;3038;51.122;6.840;2022-12-07T07:55:00;25.50;;;20.10;;
6019;SDS011;3038;51.122;6.840;2022-12-07T07:57:25;24.00;;;19.87;;
6019;SDS011;3038;51.122;6.840;2022-12-07T07:59:50;29.47;;;20.30;;
6019;SDS011;3038;51.122;6.840;2022-12-07T08:02:17;22.40;;;19.13;;
6019;SDS011;3038;51.122;6.840;2022-12-07T08:04:44;29.47;;;20.73;;
6019;SDS011;3038;51.122;6.840;2022-12-07T08:07:10;21.23;;;18.50;;
6019;SDS011;3038;51.122;6.840;2022-12-07T08:09:36;23.03;;;18.67;;
6019;SDS011;3038;51.122;6.840;2022-12-07T08:12:01;21.13;;;17.07;;
6019;SDS011;3038;51.122;6.840;2022-12-07T08:14:27;21.60;;;17.90;;
6019;SDS011;3038;51.122;6.840;2022-12-07T08:16:53;19.40;;;16.90;;
6019;SDS011;3038;51.122;6.840;2022-12-07T08:19:19;21.47;;;16.83;;
6019;SDS011;3038;51.122;6.840;2022-12-07T08:21:44;20.60;;;17.10;;
6019;SDS011;3038;51.122;6.840;2022-12-07T08:24:09;23.07;;;17.03;;
6019;SDS011;3038;51.122;6.840;2022-12-07T08:26:35;22.77;;;18.40;;
6019;SDS011;3038;51.122;6.840;2022-12-07T08:29:00;22.67;;;16.83;;
6019;SDS011;3038;51.122;6.840;2022-12-07T08:31:26;20.53;;;16.87;;
6019;SDS011;3038;51.122;6.840;2022-12-07T08:33:53;20.47;;;17.60;;
6019;SDS011;3038;51.122;6.840;2022-12-07T08:36:19;23.57;;;18.23;;
6019;SDS011;3038;51.122;6.840;2022-12-07T08:38:44;22.90;;;18.10;;
6019;SDS011;3038;51.122;6.840;2022-12-07T08:41:10;20.80;;;17.60;;
6019;SDS011;3038;51.122;6.840;2022-12-07T08:43:36;19.53;;;16.83;;
6019;SDS011;3038;51.122;6.840;2022-12-07T08:48:41;23.07;;;17.63;;
6019;SDS011;3038;51.122;6.840;2022-12-07T08:51:15;20.60;;;18.40;;
6019;SDS011;3038;51.122;6.840;2022-12-07T08:53:41;24.67;;;19.70;;
6019;SDS011;3038;51.122;6.840;2022-12-07T08:56:08;21.33;;;17.90;;
6019;SDS011;3038;51.122;6.840;2022-12-07T08:58:34;22.47;;;19.50;;
6019;SDS011;3038;51.122;6.840;2022-12-07T09:01:02;23.50;;;18.70;;
6019;SDS011;3038;51.122;6.840;2022-12-07T09:03:28;27.37;;;21.57;;
6019;SDS011;3038;51.122;6.840;2022-12-07T09:05:53;21.93;;;19.60;;
6019;SDS011;3038;51.122;6.840;2022-12-07T09:08:19;24.57;;;21.53;;
6019;SDS011;3038;51.122;6.840;2022-12-07T09:10:45;26.30;;;19.70;;
6019;SDS011;3038;51.122;6.840;2022-12-07T09:13:11;27.90;;;22.93;;
6019;SDS011;3038;51.122;6.840;2022-12-07T09:15:36;25.30;;;20.90;;
6019;SDS011;3038;51.122;6.840;2022-12-07T09:18:02;25.10;;;22.00;;
6019;SDS011;3038;51.122;6.840;2022-12-07T09:20:28;23.63;;;20.17;;
6019;SDS011;3038;51.122;6.840;2022-12-07T09:22:53;29.50;;;22.17;;
6019;SDS011;3038;51.122;6.840;2022-12-07T09:25:18;23.63;;;18.37;;
6019;SDS011;3038;51.122;6.840;2022-12-07T09:27:44;20.73;;;18.53;;
6019;SDS011;3038;51.122;6.840;2022-12-07T09:30:09;19.23;;;17.13;;
6019;SDS011;3038;51.122;6.840;2022-12-07T09:32:34;21.50;;;19.30;;
6019;SDS011;3038;51.122;6.840;2022-12-07T09:35:00;24.00;;;21.60;;
6019;SDS011;3038;51.122;6.840;2022-12-07T09:37:25;22.17;;;17.40;;
6019;SDS011;3038;51.122;6.840;2022-12-07T09:39:51;21.63;;;17.50;;
6019;SDS011;3038;51.122;6.840;2022-12-07T09:45:18;24.80;;;20.80;;
6019;SDS011;3038;51.122;6.840;2022-12-07T09:47:52;19.87;;;17.80;;
6019;SDS011;3038;51.122;6.840;2022-12-07T09:50:21;22.07;;;17.67;;
6019;SDS011;3038;51.122;6.840;2022-12-07T09:52:49;18.87;;;16.87;;
6019;SDS011;3038;51.122;6.840;2022-12-07T09:55:19;28.60;;;18.73;;
6019;SDS011;3038;51.122;6.840;2022-12-07T09:57:50;18.77;;;16.83;;
6019;SDS011;3038;51.122;6.840;2022-12-07T10:00:18;20.90;;;17.00;;
6019;SDS011;3038;51.122;6.840;2022-12-07T10:02:47;21.93;;;16.37;;
6019;SDS011;3038;51.122;6.840;2022-12-07T10:05:19;21.50;;;16.73;;
6019;SDS011;3038;51.122;6.840;2022-12-07T10:07:49;20.37;;;16.37;;
6019;SDS011;3038;51.122;6.840;2022-12-07T10:10:17;18.10;;;15.70;;
6019;SDS011;3038;51.122;6.840;2022-12-07T10:12:53;20.60;;;16.03;;
6019;SDS011;3038;51.122;6.840;2022-12-07T10:15:20;18.03;;;13.20;;
6019;SDS011;3038;51.122;6.840;2022-12-07T10:17:52;17.63;;;14.53;;
6019;SDS011;3038;51.122;6.840;2022-12-07T10:20:19;15.83;;;13.80;;
6019;SDS011;3038;51.122;6.840;2022-12-07T10:22:59;15.10;;;13.50;;
6019;SDS011;3038;51.122;6.840;2022-12-07T10:25:28;15.17;;;13.50;;
6019;SDS011;3038;51.122;6.840;2022-12-07T10:28:15;19.13;;;14.87;;
6019;SDS011;3038;51.122;6.840;2022-12-07T10:30:56;17.47;;;14.03;;
6019;SDS011;3038;51.122;6.840;2022-12-07T10:33:28;18.10;;;11.90;;
6019;SDS011;3038;51.122;6.840;2022-12-07T10:35:56;14.43;;;13.03;;
6019;SDS011;3038;51.122;6.840;2022-12-07T10:38:21;13.10;;;10.27;;
6019;SDS011;3038;51.122;6.840;2022-12-07T10:40:47;17.70;;;13.67;;
6019;SDS011;3038;51.122;6.840;2022-12-07T10:46:05;17.30;;;13.53;;
6019;SDS011;3038;51.122;6.840;2022-12-07T10:59:51;21.13;;;13.93;;
6019;SDS011;3038;51.122;6.840;2022-12-07T11:05:23;18.70;;;14.83;;
6019;SDS011;3038;51.122;6.840;2022-12-07T11:10:58;21.57;;;13.70;;
6019;SDS011;3038;51.122;6.840;2022-12-07T11:13:50;18.57;;;13.50;;
6019;SDS011;3038;51.122;6.840;2022-12-07T11:16:26;18.60;;;15.37;;
6019;SDS011;3038;51.122;6.840;2022-12-07T11:19:24;19.80;;;14.07;;
6019;SDS011;3038;51.122;6.840;2022-12-07T11:21:58;22.37;;;14.40;;
6019;SDS011;3038;51.122;6.840;2022-12-07T11:24:40;19.03;;;14.80;;
6019;SDS011;3038;51.122;6.840;2022-12-07T11:27:24;17.87;;;15.97;;
6019;SDS011;3038;51.122;6.840;2022-12-07T11:30:19;17.33;;;14.80;;
6019;SDS011;3038;51.122;6.840;2022-12-07T11:38:49;17.63;;;15.70;;
6019;SDS011;3038;51.122;6.840;2022-12-07T11:41:20;15.43;;;11.57;;
6019;SDS011;3038;51.122;6.840;2022-12-07T11:46:26;14.53;;;13.00;;
6019;SDS011;3038;51.122;6.840;2022-12-07T11:48:58;13.63;;;12.33;;
6019;SDS011;3038;51.122;6.840;2022-12-07T11:51:28;14.07;;;12.63;;
6019;SDS011;3038;51.122;6.840;2022-12-07T11:53:59;13.60;;;12.27;;
6019;SDS011;3038;51.122;6.840;2022-12-07T11:56:30;12.50;;;11.17;;
6019;SDS011;3038;51.122;6.840;2022-12-07T12:02:13;13.77;;;12.37;;
6019;SDS011;3038;51.122;6.840;2022-12-07T12:04:45;15.13;;;11.73;;
6019;SDS011;3038;51.122;6.840;2022-12-07T12:07:17;15.30;;;13.70;;
6019;SDS011;3038;51.122;6.840;2022-12-07T12:09:52;16.10;;;13.23;;
6019;SDS011;3038;51.122;6.840;2022-12-07T12:18:05;15.20;;;13.60;;
6019;SDS011;3038;51.122;6.840;2022-12-07T12:20:35;16.27;;;13.70;;
6019;SDS011;3038;51.122;6.840;2022-12-07T12:23:13;15.70;;;12.97;;
6019;SDS011;3038;51.122;6.840;2022-12-07T12:25:40;21.37;;;14.60;;
6019;SDS011;3038;51.122;6.840;2022-12-07T12:28:31;17.37;;;13.53;;
6019;SDS011;3038;51.122;6.840;2022-12-07T12:31:16;14.83;;;13.33;;
6019;SDS011;3038;51.122;6.840;2022-12-07T12:33:50;14.60;;;13.00;;
6019;SDS011;3038;51.122;6.840;2022-12-07T12:39:14;18.60;;;12.07;;
6019;SDS011;3038;51.122;6.840;2022-12-07T12:46:55;13.00;;;11.67;;
6019;SDS011;3038;51.122;6.840;2022-12-07T12:51:57;14.97;;;11.13;;
6019;SDS011;3038;51.122;6.840;2022-12-07T12:54:31;14.20;;;10.37;;
6019;SDS011;3038;51.122;6.840;2022-12-07T12:57:13;13.23;;;9.20;;
6019;SDS011;3038;51.122;6.840;2022-12-07T13:02:29;11.30;;;9.30;;
6019;SDS011;3038;51.122;6.840;2022-12-07T13:05:14;14.27;;;7.33;;
6019;SDS011;3038;51.122;6.840;2022-12-07T13:18:22;11.23;;;8.43;;
6019;SDS011;3038;51.122;6.840;2022-12-07T13:20:53;11.73;;;9.40;;
6019;SDS011;3038;51.122;6.840;2022-12-07T13:23:29;9.67;;;8.20;;
6019;SDS011;3038;51.122;6.840;2022-12-07T13:26:03;16.03;;;9.60;;
6019;SDS011;3038;51.122;6.840;2022-12-07T13:28:37;10.50;;;8.33;;
6019;SDS011;3038;51.122;6.840;2022-12-07T13:33:49;10.23;;;7.60;;
6019;SDS011;3038;51.122;6.840;2022-12-07T13:36:19;13.03;;;8.40;;
6019;SDS011;3038;51.122;6.840;2022-12-07T13:38:52;12.67;;;8.33;;
6019;SDS011;3038;51.122;6.840;2022-12-07T13:41:18;10.47;;;7.40;;
6019;SDS011;3038;51.122;6.840;2022-12-07T13:43:49;9.20;;;8.10;;
6019;SDS011;3038;51.122;6.840;2022-12-07T13:49:20;11.20;;;8.23;;
6019;SDS011;3038;51.122;6.840;2022-12-07T13:51:48;11.27;;;8.23;;
6019;SDS011;3038;51.122;6.840;2022-12-07T13:54:13;12.83;;;8.03;;
6019;SDS011;3038;51.122;6.840;2022-12-07T13:56:40;8.80;;;7.23;;
6019;SDS011;3038;51.122;6.840;2022-12-07T13:59:10;9.07;;;7.60;;
6019;SDS011;3038;51.122;6.840;2022-12-07T14:01:40;10.40;;;7.50;;
6019;SDS011;3038;51.122;6.840;2022-12-07T14:07:01;11.50;;;7.43;;
6019;SDS011;3038;51.122;6.840;2022-12-07T14:09:52;11.03;;;7.10;;
6019;SDS011;3038;51.122;6.840;2022-12-07T14:12:23;10.83;;;8.33;;
6019;SDS011;3038;51.122;6.840;2022-12-07T14:14:49;10.40;;;7.13;;
6019;SDS011;3038;51.122;6.840;2022-12-07T14:17:17;12.43;;;10.00;;
6019;SDS011;3038;51.122;6.840;2022-12-07T14:19:45;14.77;;;9.83;;
6019;SDS011;3038;51.122;6.840;2022-12-07T14:27:51;13.53;;;9.30;;
6019;SDS011;3038;51.122;6.840;2022-12-07T14:30:18;14.07;;;9.63;;
6019;SDS011;3038;51.122;6.840;2022-12-07T14:32:44;10.90;;;8.83;;
6019;SDS011;3038;51.122;6.840;2022-12-07T14:35:14;14.80;;;9.97;;
6019;SDS011;3038;51.122;6.840;2022-12-07T14:37:42;15.43;;;10.80;;
6019;SDS011;3038;51.122;6.840;2022-12-07T14:40:12;13.30;;;10.53;;
6019;SDS011;3038;51.122;6.840;2022-12-07T14:42:39;14.73;;;10.10;;
6019;SDS011;3038;51.122;6.840;2022-12-07T14:45:05;14.40;;;10.57;;
6019;SDS011;3038;51.122;6.840;2022-12-07T14:47:31;13.77;;;10.67;;
6019;SDS011;3038;51.122;6.840;2022-12-07T14:49:57;14.33;;;9.20;;
6019;SDS011;3038;51.122;6.840;2022-12-07T14:52:23;13.87;;;10.90;;
6019;SDS011;3038;51.122;6.840;2022-12-07T14:54:52;12.00;;;9.30;;
6019;SDS011;3038;51.122;6.840;2022-12-07T14:57:17;12.47;;;9.67;;
6019;SDS011;3038;51.122;6.840;2022-12-07T14:59:43;11.83;;;10.47;;
6019;SDS011;3038;51.122;6.840;2022-12-07T15:02:09;14.47;;;11.10;;
6019;SDS011;3038;51.122;6.840;2022-12-07T15:04:36;15.83;;;11.80;;
6019;SDS011;3038;51.122;6.840;2022-12-07T15:07:02;12.03;;;10.63;;
6019;SDS011;3038;51.122;6.840;2022-12-07T15:09:29;15.40;;;11.57;;
6019;SDS011;3038;51.122;6.840;2022-12-07T15:11:54;15.20;;;11.47;;
6019;SDS011;3038;51.122;6.840;2022-12-07T15:14:20;13.10;;;9.27;;
6019;SDS011;3038;51.122;6.840;2022-12-07T15:16:45;11.80;;;10.60;;
6019;SDS011;3038;51.122;6.840;2022-12-07T15:19:14;9.60;;;7.40;;
6019;SDS011;3038;51.122;6.840;2022-12-07T15:21:42;8.03;;;7.23;;
6019;SDS011;3038;51.122;6.840;2022-12-07T15:24:08;12.03;;;7.07;;
6019;SDS011;3038;51.122;6.840;2022-12-07T15:26:35;9.97;;;7.33;;
6019;SDS011;3038;51.122;6.840;2022-12-07T15:29:00;8.63;;;6.20;;
6019;SDS011;3038;51.122;6.840;2022-12-07T15:31:25;10.93;;;8.17;;
6019;SDS011;3038;51.122;6.840;2022-12-07T15:33:51;9.13;;;7.33;;
6019;SDS011;3038;51.122;6.840;2022-12-07T15:36:21;13.90;;;10.10;;
6019;SDS011;3038;51.122;6.840;2022-12-07T15:38:48;14.97;;;8.57;;
6019;SDS011;3038;51.122;6.840;2022-12-07T15:41:13;12.00;;;7.60;;
6019;SDS011;3038;51.122;6.840;2022-12-07T15:43:39;8.80;;;7.97;;
6019;SDS011;3038;51.122;6.840;2022-12-07T15:46:23;12.47;;;7.90;;
6019;SDS011;3038;51.122;6.840;2022-12-07T15:48:49;8.23;;;7.20;;
6019;SDS011;3038;51.122;6.840;2022-12-07T15:51:14;8.40;;;7.37;;
6019;SDS011;3038;51.122;6.840;2022-12-07T15:53:39;6.00;;;5.37;;
6019;SDS011;3038;51.122;6.840;2022-12-07T15:56:05;9.73;;;6.17;;
6019;SDS011;3038;51.122;6.840;2022-12-07T15:58:32;7.57;;;6.30;;
6019;SDS011;3038;51.122;6.840;2022-12-07T16:00:57;6.53;;;5.50;;
6019;SDS011;3038;51.122;6.840;2022-12-07T16:03:22;8.70;;;6.50;;
6019;SDS011;3038;51.122;6.840;2022-12-07T16:05:48;9.40;;;6.70;;
6019;SDS011;3038;51.122;6.840;2022-12-07T16:08:14;6.40;;;5.80;;
6019;SDS011;3038;51.122;6.840;2022-12-07T16:10:40;8.17;;;6.43;;
6019;SDS011;3038;51.122;6.840;2022-12-07T16:13:08;7.77;;;6.60;;
6019;SDS011;3038;51.122;6.840;2022-12-07T16:15:40;6.57;;;6.00;;
6019;SDS011;3038;51.122;6.840;2022-12-07T16:18:06;8.50;;;6.77;;
6019;SDS011;3038;51.122;6.840;2022-12-07T16:20:32;10.30;;;7.70;;
6019;SDS011;3038;51.122;6.840;2022-12-07T16:22:57;9.80;;;6.73;;
6019;SDS011;3038;51.122;6.840;2022-12-07T16:25:23;14.37;;;8.40;;
6019;SDS011;3038;51.122;6.840;2022-12-07T16:27:48;13.30;;;8.30;;
6019;SDS011;3038;51.122;6.840;2022-12-07T16:30:14;11.70;;;9.20;;
6019;SDS011;3038;51.122;6.840;2022-12-07T16:32:41;10.80;;;8.50;;
6019;SDS011;3038;51.122;6.840;2022-12-07T16:35:07;11.03;;;8.30;;
6019;SDS011;3038;51.122;6.840;2022-12-07T16:37:33;14.77;;;8.20;;
6019;SDS011;3038;51.122;6.840;2022-12-07T16:39:58;13.27;;;10.20;;
6019;SDS011;3038;51.122;6.840;2022-12-07T16:42:23;10.17;;;8.67;;
6019;SDS011;3038;51.122;6.840;2022-12-07T16:44:49;12.00;;;10.03;;
6019;SDS011;3038;51.122;6.840;2022-12-07T16:47:14;14.07;;;11.97;;